Time;durP1;ratioP1;P1;durP2;ratioP2;P2;SDS_P1;SDS_P2;PMS_P1;PMS_P2;Temp;Humidity;BMP_temperature;BMP_pressure;BME280_temperature;BME280_humidity;BME280_pressure;Samples;Min_cycle;Max_cycle;Signal;HPM_P1;HPM_P2
2022/09/25 00:00:13;;;;;;;23.10;11.40;;;;;;;9.67;80.99;99775.55;104941;1271;72151;-79
2022/09/25 00:03:28;;;;;;;22.20;12.00;;;;;;;9.71;79.97;99776.33;105459;1271;69531;-79
2022/09/25 00:06:21;;;;;;;19.30;10.90;;;;;;;9.74;80.06;99774.83;104987;1271;72002;-79
2022/09/25 00:09:09;;;;;;;20.70;11.80;;;;;;;9.78;79.85;99772.60;104861;1271;59758;-77
2022/09/25 00:11:57;;;;;;;23.30;12.60;;;;;;;9.77;80.75;99769.29;105108;1271;61264;-80
2022/09/25 00:14:49;;;;;;;21.70;12.40;;;;;;;9.74;80.43;99762.55;105067;1270;73320;-79
2022/09/25 00:17:37;;;;;;;24.90;13.40;;;;;;;9.75;81.41;99760.92;105213;1271;68375;-78
2022/09/25 00:20:25;;;;;;;26.90;14.10;;;;;;;9.75;82.05;99764.28;105294;1271;72842;-77
2022/09/25 00:23:14;;;;;;;23.20;12.80;;;;;;;9.76;82.20;99762.95;106116;1271;59839;-76
2022/09/25 00:26:07;;;;;;;22.40;10.80;;;;;;;9.78;82.61;99756.07;105653;1271;60462;-77
2022/09/25 00:28:56;;;;;;;17.90;10.10;;;;;;;9.81;81.30;99756.33;105242;1271;73064;-76
2022/09/25 00:32:10;;;;;;;20.00;10.30;;;;;;;9.85;80.10;99753.74;105154;1271;68048;-77
2022/09/25 00:34:58;;;;;;;22.50;10.80;;;;;;;9.89;80.88;99749.73;105345;1271;74556;-78
2022/09/25 00:37:46;;;;;;;18.70;10.40;;;;;;;9.89;80.14;99750.77;105155;1271;60278;-78
2022/09/25 00:40:34;;;;;;;17.20;10.40;;;;;;;9.89;79.49;99749.14;105250;1271;61622;-78
2022/09/25 00:43:39;;;;;;;17.20;10.30;;;;;;;9.88;79.40;99747.50;105088;1271;74703;-82
2022/09/25 00:46:35;;;;;;;20.50;10.40;;;;;;;9.84;79.00;99747.79;105177;1271;69554;-79
2022/09/25 00:49:25;;;;;;;17.60;10.10;;;;;;;9.80;78.15;99747.77;104962;1271;72905;-78
2022/09/25 00:52:13;;;;;;;17.20;9.60;;;;;;;9.77;77.48;99745.88;105433;1271;59692;-77
2022/09/25 00:55:06;;;;;;;17.30;9.30;;;;;;;9.76;77.48;99744.55;105307;1271;60954;-77
2022/09/25 00:57:56;;;;;;;18.40;9.80;;;;;;;9.77;76.89;99740.75;104981;1271;73300;-78
2022/09/25 01:00:44;;;;;;;17.60;10.10;;;;;;;9.79;76.99;99741.96;105403;1271;68258;-79
2022/09/25 01:03:33;;;;;;;19.30;10.80;;;;;;;9.82;76.49;99743.50;105452;1271;71482;-78
2022/09/25 01:06:21;;;;;;;18.80;9.70;;;;;;;9.84;76.66;99743.92;105135;1271;59736;-76
2022/09/25 01:09:10;;;;;;;16.30;9.10;;;;;;;9.84;76.39;99741.77;104939;1271;59669;-76
2022/09/25 01:11:58;;;;;;;19.30;10.50;;;;;;;9.83;76.21;99742.54;105142;1271;191075;-76
2022/09/25 01:14:46;;;;;;;17.80;9.60;;;;;;;9.84;76.22;99742.85;105057;1271;68258;-75
2022/09/25 01:18:02;;;;;;;18.10;9.90;;;;;;;9.84;76.25;99738.97;105107;1271;73295;-79
2022/09/25 01:21:11;;;;;;;17.40;9.70;;;;;;;9.82;76.03;99743.51;105343;1271;59749;-79
2022/09/25 01:24:38;;;;;;;19.80;9.70;;;;;;;9.82;76.24;99743.92;105091;1271;60372;-76
2022/09/25 01:28:00;;;;;;;18.10;9.70;;;;;;;9.82;75.74;99739.09;105002;1271;73563;-78
2022/09/25 01:30:54;;;;;;;16.50;9.20;;;;;;;9.84;75.40;99741.58;105137;1271;69865;-78
2022/09/25 01:33:54;;;;;;;16.20;8.90;;;;;;;9.87;75.68;99740.13;105097;1271;70581;-77
2022/09/25 01:36:58;;;;;;;19.10;8.80;;;;;;;9.88;75.60;99735.96;105098;1271;59719;-79
2022/09/25 01:40:01;;;;;;;17.70;8.50;;;;;;;9.89;75.15;99735.55;105037;1271;62096;-78
2022/09/25 01:43:15;;;;;;;14.70;8.30;;;;;;;9.88;75.04;99736.63;105040;1271;71505;-76
2022/09/25 01:46:20;;;;;;;13.80;7.40;;;;;;;9.87;74.84;99731.74;105077;1271;67003;-77
2022/09/25 01:49:28;;;;;;;16.90;8.40;;;;;;;9.86;75.18;99731.14;105374;1271;72950;-74
2022/09/25 01:52:24;;;;;;;15.50;8.80;;;;;;;9.87;74.93;99729.30;105137;1271;60159;-75
2022/09/25 01:55:49;;;;;;;15.50;7.90;;;;;;;9.89;74.90;99728.78;105191;1271;59653;-78
2022/09/25 01:58:48;;;;;;;13.50;6.80;;;;;;;9.93;74.89;99723.69;105091;1271;74713;-76
2022/09/25 02:01:42;;;;;;;13.30;7.50;;;;;;;9.96;74.50;99725.74;104956;1271;69575;-76
2022/09/25 02:04:38;;;;;;;12.80;7.10;;;;;;;9.99;74.16;99727.84;104984;1271;72745;-75
2022/09/25 02:07:54;;;;;;;14.40;7.00;;;;;;;9.98;73.94;99721.00;105043;1271;59739;-75
2022/09/25 02:10:50;;;;;;;13.90;6.80;;;;;;;9.96;73.81;99718.50;105197;1271;62149;-77
2022/09/25 02:13:57;;;;;;;13.30;6.90;;;;;;;9.95;73.98;99715.21;105075;1271;72594;-75
2022/09/25 02:16:52;;;;;;;13.90;7.20;;;;;;;9.92;73.88;99714.36;105112;1271;69524;-75
2022/09/25 02:22:51;;;;;;;15.90;7.90;;;;;;;9.89;73.94;99709.16;105036;1271;59664;-74
2022/09/25 02:25:43;;;;;;;12.80;7.80;;;;;;;9.88;73.98;99710.27;105295;1271;60039;-78
2022/09/25 02:28:31;;;;;;;13.80;6.90;;;;;;;9.91;73.57;99710.19;105094;1271;73239;-78
2022/09/25 02:31:28;;;;;;;13.70;7.00;;;;;;;9.94;73.47;99708.42;104939;1271;68653;-78
2022/09/25 02:34:16;;;;;;;12.30;6.70;;;;;;;9.94;73.50;99707.30;104960;1271;71477;-78
2022/09/25 02:37:14;;;;;;;12.20;6.80;;;;;;;9.94;73.50;99705.52;104890;1271;59708;-78
2022/09/25 02:40:03;;;;;;;12.30;6.40;;;;;;;9.94;72.86;99700.04;105162;1271;59643;-78
2022/09/25 02:43:38;;;;;;;13.30;6.70;;;;;;;9.93;72.92;99696.24;105231;1271;71928;-78
2022/09/25 02:46:59;;;;;;;13.40;7.00;;;;;;;9.91;72.67;99698.33;104600;1277;68477;-77
2022/09/25 02:50:22;;;;;;;13.40;7.50;;;;;;;9.89;72.81;99692.96;104648;1277;74210;-78
2022/09/25 02:54:20;;;;;;;15.00;7.50;;;;;;;9.90;73.24;99691.33;104955;1277;59654;-78
2022/09/25 02:57:12;;;;;;;15.10;8.10;;;;;;;9.93;73.10;99691.77;104420;1277;62046;-78
2022/09/25 03:00:06;;;;;;;12.70;7.30;;;;;;;9.94;73.33;99691.53;104813;1277;74463;-78
2022/09/25 03:02:58;;;;;;;15.30;7.80;;;;;;;9.95;73.36;99689.89;104684;1277;69604;-79
2022/09/25 03:05:50;;;;;;;15.90;8.00;;;;;;;9.94;73.38;99690.47;104534;1277;74151;-78
2022/09/25 03:08:48;;;;;;;13.10;7.40;;;;;;;9.94;73.38;99690.46;104708;1277;59871;-77
2022/09/25 03:11:41;;;;;;;14.00;7.50;;;;;;;9.94;73.26;99688.54;104891;1277;62170;-80
2022/09/25 03:14:30;;;;;;;11.40;6.70;;;;;;;9.95;72.90;99690.95;104642;1277;76141;-77
2022/09/25 03:17:19;;;;;;;12.40;6.80;;;;;;;9.96;72.67;99688.94;104578;1277;69615;-81
2022/09/25 03:20:08;;;;;;;14.10;7.50;;;;;;;9.94;72.96;99690.27;104653;1277;71933;-81
2022/09/25 03:22:56;;;;;;;14.40;7.70;;;;;;;9.93;72.92;99683.98;104679;1271;59849;-80
2022/09/25 03:25:46;;;;;;;12.70;7.20;;;;;;;9.92;73.28;99684.95;104874;1271;1003119;-79
2022/09/25 03:28:38;;;;;;;13.60;7.30;;;;;;;9.93;73.28;99682.10;105136;1271;74670;-79
2022/09/25 03:31:25;;;;;;;14.30;7.30;;;;;;;9.94;72.94;99681.96;105050;1271;68092;-77
2022/09/25 03:34:17;;;;;;;12.40;7.10;;;;;;;9.96;72.85;99681.11;105244;1271;71592;-77
2022/09/25 03:37:05;;;;;;;12.70;7.00;;;;;;;9.98;72.93;99678.67;104920;1271;59752;-79
2022/09/25 03:39:53;;;;;;;15.00;7.40;;;;;;;9.98;73.09;99680.80;105191;1271;60213;-76
2022/09/25 03:42:42;;;;;;;12.60;6.90;;;;;;;9.97;73.26;99676.22;105177;1271;71824;-77
2022/09/25 03:45:30;;;;;;;14.40;7.10;;;;;;;9.96;74.05;99674.51;104984;1271;69629;-75
2022/09/25 03:48:18;;;;;;;12.80;7.30;;;;;;;9.96;74.95;99676.11;104919;1271;74184;-75
2022/09/25 03:51:08;;;;;;;12.90;6.70;;;;;;;9.96;75.39;99675.98;105211;1271;59706;-79
2022/09/25 03:53:56;;;;;;;12.80;6.80;;;;;;;9.95;75.28;99679.81;105182;1271;60744;-74
2022/09/25 03:56:44;;;;;;;18.50;7.50;;;;;;;9.94;76.85;99680.70;105370;1271;72973;-74
2022/09/25 03:59:32;;;;;;;11.90;6.60;;;;;;;9.96;77.52;99683.09;105396;1271;69268;-76
2022/09/25 04:02:20;;;;;;;13.50;6.90;;;;;;;9.96;77.14;99685.56;105345;1271;71640;-79
2022/09/25 04:05:08;;;;;;;12.10;6.40;;;;;;;9.98;76.86;99688.73;105441;1271;59778;-79
2022/09/25 04:07:56;;;;;;;11.80;6.60;;;;;;;9.97;75.89;99689.52;105195;1270;62051;-77
2022/09/25 04:10:45;;;;;;;13.90;7.30;;;;;;;9.98;75.82;99687.30;105221;1271;72652;-80
2022/09/25 04:13:36;;;;;;;11.80;6.50;;;;;;;10.00;76.42;99683.98;105330;1271;68359;-79
2022/09/25 04:16:24;;;;;;;11.20;6.30;;;;;;;10.02;76.98;99684.34;105264;1271;71512;-79
2022/09/25 04:19:15;;;;;;;16.00;7.30;;;;;;;10.01;76.87;99683.86;105281;1270;59646;-79
2022/09/25 04:22:04;;;;;;;13.80;7.10;;;;;;;9.99;75.62;99682.82;105384;1271;60282;-79
2022/09/25 04:24:53;;;;;;;14.00;6.60;;;;;;;9.95;75.17;99682.25;105323;1271;73325;-79
2022/09/25 04:27:44;;;;;;;13.80;7.00;;;;;;;9.90;75.20;99682.62;105060;1271;67780;-79
2022/09/25 04:30:33;;;;;;;13.20;6.90;;;;;;;9.86;75.13;99681.55;105083;1271;71372;-79
2022/09/25 04:36:27;;;;;;;14.90;7.70;;;;;;;9.83;75.06;99677.49;105976;1271;60415;-83
2022/09/25 04:39:18;;;;;;;13.50;7.30;;;;;;;9.86;75.12;99678.91;105251;1271;73722;-81
2022/09/25 04:42:07;;;;;;;14.10;7.90;;;;;;;9.89;75.30;99676.02;105045;1271;67804;-80
2022/09/25 04:44:57;;;;;;;15.10;8.20;;;;;;;9.91;74.92;99675.66;104978;1271;70739;-81
2022/09/25 04:47:45;;;;;;;14.20;7.60;;;;;;;9.92;75.23;99674.86;105001;1271;59776;-78
2022/09/25 04:50:37;;;;;;;15.40;8.10;;;;;;;9.92;75.69;99672.76;105296;1271;59621;-83
2022/09/25 04:53:33;;;;;;;14.10;7.60;;;;;;;9.93;75.40;99670.05;105210;1276;71623;-80
2022/09/25 04:56:22;;;;;;;14.40;7.90;;;;;;;9.90;75.82;99672.20;105109;1274;68268;-82
2022/09/25 04:59:15;;;;;;;13.30;7.90;;;;;;;9.86;75.73;99669.13;104855;1277;72103;-81
2022/09/25 05:02:04;;;;;;;18.10;8.40;;;;;;;9.85;75.46;99672.41;104921;1276;59761;-76
2022/09/25 05:04:52;;;;;;;13.30;8.10;;;;;;;9.84;75.35;99673.36;104816;1277;59922;-76
2022/09/25 05:07:51;;;;;;;12.40;6.80;;;;;;;9.85;75.31;99679.48;104850;1275;73146;-76
2022/09/25 05:10:39;;;;;;;13.30;7.10;;;;;;;9.85;74.40;99676.86;104880;1277;66841;-76
2022/09/25 05:13:28;;;;;;;13.90;7.70;;;;;;;9.86;74.08;99674.63;104776;1277;70553;-76
2022/09/25 05:16:16;;;;;;;12.70;7.00;;;;;;;9.85;73.33;99679.10;104851;1275;59753;-76
2022/09/25 05:19:04;;;;;;;14.70;7.50;;;;;;;9.86;73.10;99684.60;104886;1274;59836;-79
2022/09/25 05:21:55;;;;;;;12.70;6.60;;;;;;;9.86;73.32;99685.13;104954;1277;73677;-80
2022/09/25 05:24:45;;;;;;;13.50;7.30;;;;;;;9.86;73.45;99685.63;104881;1271;68024;-76
2022/09/25 05:27:33;;;;;;;13.10;7.40;;;;;;;9.87;73.61;99690.31;105395;1271;72607;-74
2022/09/25 05:30:22;;;;;;;13.70;7.80;;;;;;;9.88;73.56;99690.27;105097;1271;60576;-77
2022/09/25 05:33:09;;;;;;;13.70;7.30;;;;;;;9.89;73.72;99690.36;105228;1271;60401;-75
2022/09/25 05:36:03;;;;;;;15.30;7.60;;;;;;;9.92;73.55;99686.25;105377;1271;74915;-77
2022/09/25 05:38:52;;;;;;;14.40;7.70;;;;;;;9.94;73.46;99687.08;105227;1271;66681;-80
2022/09/25 05:41:40;;;;;;;12.70;7.30;;;;;;;9.96;73.72;99684.48;105146;1271;72745;-75
2022/09/25 05:44:28;;;;;;;15.90;8.30;;;;;;;9.98;73.16;99685.94;105203;1271;59641;-71
2022/09/25 05:47:17;;;;;;;16.00;8.60;;;;;;;10.01;73.70;99687.27;105448;1271;60774;-73
2022/09/25 05:50:08;;;;;;;15.00;8.50;;;;;;;10.03;73.70;99689.16;105228;1271;73498;-71
2022/09/25 05:52:57;;;;;;;15.20;8.60;;;;;;;10.03;73.79;99686.36;105152;1271;69369;-74
2022/09/25 05:56:04;;;;;;;15.50;9.50;;;;;;;10.04;73.73;99683.67;105146;1271;74579;-72
2022/09/25 05:58:57;;;;;;;18.00;9.90;;;;;;;10.04;74.00;99682.95;105412;1271;61838;-74
2022/09/25 06:01:45;;;;;;;17.10;9.10;;;;;;;10.05;74.36;99682.63;104969;1271;61734;-73
2022/09/25 06:04:33;;;;;;;16.30;9.10;;;;;;;10.10;74.38;99683.02;105184;1271;74505;-75
2022/09/25 06:07:21;;;;;;;17.40;9.40;;;;;;;10.13;74.97;99681.16;105237;1271;69686;-75
2022/09/25 06:10:10;;;;;;;14.60;8.40;;;;;;;10.16;74.58;99683.54;105638;1271;74417;-75
2022/09/25 06:13:03;;;;;;;18.60;9.90;;;;;;;10.19;74.71;99684.73;105854;1271;59700;-76
2022/09/25 06:15:52;;;;;;;16.90;9.40;;;;;;;10.20;74.29;99685.20;106387;1271;59647;-74
2022/09/25 06:18:41;;;;;;;18.50;9.70;;;;;;;10.20;74.43;99678.81;106447;1271;71997;-72
2022/09/25 06:21:29;;;;;;;18.20;9.80;;;;;;;10.22;74.54;99680.77;105850;1271;68363;-73
2022/09/25 06:24:16;;;;;;;16.50;8.40;;;;;;;10.29;74.93;99679.14;105153;1271;74043;-72
2022/09/25 06:27:08;;;;;;;18.10;9.70;;;;;;;10.35;75.15;99679.54;105728;1271;59710;-74
2022/09/25 06:29:56;;;;;;;18.50;9.30;;;;;;;10.41;75.31;99681.02;105138;1271;59617;-72
2022/09/25 06:32:45;;;;;;;13.20;7.80;;;;;;;10.47;75.27;99676.42;105096;1271;75029;-73
2022/09/25 06:35:39;;;;;;;15.80;10.10;;;;;;;10.52;75.52;99677.58;105127;1271;68315;-73
2022/09/25 06:38:28;;;;;;;16.80;8.80;;;;;;;10.58;75.83;99673.96;105004;1271;71472;-75
2022/09/25 06:41:15;;;;;;;17.40;9.90;;;;;;;10.65;76.09;99677.64;105150;1271;59725;-72
2022/09/25 06:44:04;;;;;;;15.60;9.50;;;;;;;10.73;76.22;99678.52;105177;1271;60708;-74
2022/09/25 06:46:54;;;;;;;16.90;8.90;;;;;;;10.84;75.94;99679.88;105455;1271;74493;-73
2022/09/25 06:49:42;;;;;;;17.70;9.20;;;;;;;10.96;75.54;99679.96;104963;1271;68615;-74
2022/09/25 06:52:30;;;;;;;18.40;9.20;;;;;;;11.10;76.21;99679.89;105083;1271;74560;-74
2022/09/25 06:55:18;;;;;;;16.40;8.80;;;;;;;11.20;75.19;99677.77;105081;1272;59772;-73
2022/09/25 06:58:12;;;;;;;16.70;8.90;;;;;;;11.31;75.02;99675.52;105429;1271;61712;-69
2022/09/25 07:01:00;;;;;;;15.80;9.20;;;;;;;11.46;74.25;99677.09;105129;1271;73743;-74
2022/09/25 07:03:55;;;;;;;13.30;6.90;;;;;;;11.61;73.10;99674.89;105125;1271;68364;-73
2022/09/25 07:06:44;;;;;;;15.80;8.50;;;;;;;11.72;72.34;99674.39;105210;1271;71584;-72
2022/09/25 07:09:32;;;;;;;15.40;8.50;;;;;;;11.89;71.89;99677.05;105136;1271;59676;-72
2022/09/25 07:12:20;;;;;;;14.00;7.70;;;;;;;12.09;72.27;99678.46;105272;1270;61371;-75
2022/09/25 07:15:10;;;;;;;12.10;7.10;;;;;;;12.30;71.48;99676.58;104934;1272;73156;-73
2022/09/25 07:17:58;;;;;;;16.20;8.00;;;;;;;12.53;70.49;99670.41;105833;1271;68109;-72
2022/09/25 07:20:46;;;;;;;13.00;8.00;;;;;;;12.78;68.97;99672.02;104994;1273;73452;-73
2022/09/25 07:23:35;;;;;;;14.10;8.20;;;;;;;13.05;68.31;99670.60;105387;1271;60336;-72
2022/09/25 07:26:27;;;;;;;12.30;6.80;;;;;;;13.34;66.70;99671.96;105560;1271;60235;-72
2022/09/25 07:29:15;;;;;;;14.90;7.40;;;;;;;13.55;65.28;99675.67;105248;1271;71684;-73
2022/09/25 07:32:04;;;;;;;13.10;7.40;;;;;;;13.81;63.78;99672.05;105439;1271;68063;-71
2022/09/25 07:34:52;;;;;;;12.40;7.80;;;;;;;13.98;61.54;99674.48;105010;1271;74436;-73
2022/09/25 07:37:40;;;;;;;13.90;6.90;;;;;;;14.16;61.61;99675.46;105135;1271;59647;-72
2022/09/25 07:40:30;;;;;;;12.00;7.40;;;;;;;14.43;60.83;99674.91;105168;1271;61807;-72
2022/09/25 07:43:19;;;;;;;13.80;8.00;;;;;;;14.68;60.47;99671.90;105449;1271;74355;-72
2022/09/25 07:46:07;;;;;;;15.40;9.00;;;;;;;14.94;58.93;99671.20;105162;1271;67972;-72
2022/09/25 07:48:55;;;;;;;13.30;7.50;;;;;;;15.12;57.52;99667.45;105473;1271;74047;-72
2022/09/25 07:51:42;;;;;;;13.30;7.00;;;;;;;15.24;56.84;99663.33;105129;1271;59676;-70
2022/09/25 07:54:31;;;;;;;13.50;7.90;;;;;;;15.36;56.91;99668.71;105066;1271;60984;-72
2022/09/25 07:57:19;;;;;;;12.60;6.50;;;;;;;15.48;56.39;99670.72;105184;1271;74723;-70
2022/09/25 08:00:08;;;;;;;12.30;6.70;;;;;;;15.56;55.72;99664.02;105150;1271;68039;-72
2022/09/25 08:02:58;;;;;;;14.10;8.40;;;;;;;15.53;55.08;99665.20;105159;1271;72673;-72
2022/09/25 08:05:46;;;;;;;13.80;8.00;;;;;;;15.49;55.24;99664.63;105160;1271;59685;-71
2022/09/25 08:08:36;;;;;;;12.40;7.80;;;;;;;15.55;54.70;99661.77;105186;1271;59979;-74
2022/09/25 08:11:26;;;;;;;12.40;8.30;;;;;;;15.57;53.93;99657.81;104998;1271;74799;-73
2022/09/25 08:14:14;;;;;;;12.20;8.00;;;;;;;15.71;53.73;99655.92;105150;1271;66529;-74
2022/09/25 08:17:02;;;;;;;12.10;7.10;;;;;;;15.83;53.50;99656.29;104982;1271;73739;-72
2022/09/25 08:19:53;;;;;;;14.60;7.80;;;;;;;15.87;52.87;99653.23;105177;1271;59752;-69
2022/09/25 08:22:42;;;;;;;15.80;9.80;;;;;;;15.89;52.46;99649.07;105365;1271;59527;-72
2022/09/25 08:25:31;;;;;;;13.50;7.80;;;;;;;15.95;52.38;99649.17;105521;1271;73621;-72
2022/09/25 08:28:18;;;;;;;10.60;6.10;;;;;;;16.02;52.65;99642.48;105185;1271;68027;-72
2022/09/25 08:31:07;;;;;;;13.90;7.50;;;;;;;16.19;52.48;99641.60;105079;1272;73133;-75
2022/09/25 08:33:55;;;;;;;11.10;7.00;;;;;;;16.39;51.00;99640.38;105117;1271;59749;-73
2022/09/25 08:37:02;;;;;;;13.10;7.10;;;;;;;16.70;50.79;99638.38;105212;1271;60516;-74
2022/09/25 08:39:50;;;;;;;10.50;6.70;;;;;;;17.15;50.16;99636.65;105409;1271;74107;-75
2022/09/25 08:42:38;;;;;;;11.60;6.40;;;;;;;17.63;48.48;99633.20;105047;1274;66798;-74
2022/09/25 08:49:04;;;;;;;11.60;5.90;;;;;;;18.05;47.17;99633.96;104852;1274;59656;-75
2022/09/25 08:52:00;;;;;;;9.40;5.60;;;;;;;18.09;45.79;99631.41;104987;1274;60210;-74
2022/09/25 08:54:49;;;;;;;11.70;5.20;;;;;;;18.19;46.25;99629.16;105798;1274;73242;-75
2022/09/25 08:57:42;;;;;;;10.70;5.70;;;;;;;18.19;44.99;99629.45;105190;1274;68593;-73
2022/09/25 09:00:33;;;;;;;9.50;5.50;;;;;;;18.14;44.08;99631.31;105307;1274;73220;-72
2022/09/25 09:03:33;;;;;;;9.70;5.10;;;;;;;18.01;44.20;99628.41;105009;1276;59798;-74
2022/09/25 09:06:25;;;;;;;9.90;5.50;;;;;;;17.82;44.70;99623.38;104603;1277;60433;-74
2022/09/25 09:09:41;;;;;;;9.80;5.00;;;;;;;17.76;45.19;99622.30;104855;1278;73964;-79
2022/09/25 09:12:49;;;;;;;8.90;5.10;;;;;;;17.66;45.35;99621.52;104845;1274;67102;-78
2022/09/25 09:16:00;;;;;;;10.30;5.90;;;;;;;17.59;44.89;99624.34;104826;1274;72946;-72
2022/09/25 09:18:48;;;;;;;9.60;4.90;;;;;;;17.47;44.56;99626.99;105027;1274;59957;-75
2022/09/25 09:21:56;;;;;;;8.80;5.00;;;;;;;17.48;45.00;99627.55;105008;1271;59648;-75
2022/09/25 09:25:05;;;;;;;7.90;4.10;;;;;;;17.51;45.50;99620.45;105183;1271;72342;-74
2022/09/25 09:28:38;;;;;;;7.80;4.20;;;;;;;17.61;45.48;99618.21;105127;1271;68076;-76
2022/09/25 09:31:55;;;;;;;7.30;4.10;;;;;;;17.67;44.55;99611.23;105521;1271;73773;-77
2022/09/25 09:34:43;;;;;;;9.50;4.40;;;;;;;17.74;43.93;99608.19;105484;1271;59772;-77
2022/09/25 09:38:35;;;;;;;8.40;4.60;;;;;;;17.84;43.61;99603.16;105342;1271;59773;-75
2022/09/25 09:42:10;;;;;;;7.30;3.90;;;;;;;18.05;42.27;99600.79;105218;1271;74468;-72
2022/09/25 09:45:19;;;;;;;8.80;4.10;;;;;;;18.30;41.28;99596.20;105274;1271;67980;-75
2022/09/25 09:48:19;;;;;;;8.00;3.90;;;;;;;18.52;40.72;99593.92;105490;1270;71963;-80
2022/09/25 09:51:33;;;;;;;7.60;3.90;;;;;;;18.59;40.58;99589.14;105224;1271;59783;-76
2022/09/25 09:54:38;;;;;;;9.40;4.40;;;;;;;18.60;39.71;99585.17;105142;1271;60883;-75
2022/09/25 09:57:32;;;;;;;8.10;3.90;;;;;;;18.73;39.80;99580.73;105464;1271;71674;-77
2022/09/25 10:00:22;;;;;;;7.80;3.20;;;;;;;19.06;39.91;99573.96;105410;1271;67019;-74
2022/09/25 10:03:16;;;;;;;7.80;3.50;;;;;;;19.49;39.41;99569.95;105345;1271;74069;-72
2022/09/25 10:06:12;;;;;;;8.40;3.20;;;;;;;19.93;38.52;99565.88;105223;1271;59618;-76
2022/09/25 10:09:00;;;;;;;8.60;3.90;;;;;;;20.39;36.36;99564.44;105358;1271;59792;-73
2022/09/25 10:11:58;;;;;;;7.00;3.30;;;;;;;20.81;35.59;99559.13;105208;1271;72997;-75
2022/09/25 10:14:47;;;;;;;7.60;3.60;;;;;;;21.58;35.12;99562.21;105011;1271;67892;-74
2022/09/25 10:17:36;;;;;;;9.00;3.70;;;;;;;22.31;33.94;99559.11;105053;1271;71340;-77
2022/09/25 10:20:43;;;;;;;7.80;3.60;;;;;;;22.37;32.88;99564.36;105126;1271;59653;-75
2022/09/25 10:23:47;;;;;;;8.90;3.80;;;;;;;22.53;33.57;99553.45;105361;1271;60522;-72
2022/09/25 10:26:39;;;;;;;6.80;3.30;;;;;;;22.73;33.20;99544.37;105350;1271;75452;-77
2022/09/25 10:29:28;;;;;;;7.70;3.60;;;;;;;22.91;32.04;99541.44;105258;1271;69131;-76
2022/09/25 10:32:16;;;;;;;8.10;3.60;;;;;;;23.24;31.35;99539.44;105069;1271;74398;-71
2022/09/25 10:35:15;;;;;;;7.50;3.20;;;;;;;24.03;30.59;99534.41;105160;1271;59665;-74
2022/09/25 10:38:17;;;;;;;7.00;2.90;;;;;;;25.23;29.57;99532.92;105095;1271;59682;-73
2022/09/25 10:41:21;;;;;;;6.90;3.00;;;;;;;25.80;27.20;99531.45;105152;1271;72000;-75
2022/09/25 10:44:30;;;;;;;6.70;2.80;;;;;;;26.72;26.11;99522.93;104762;1274;66822;-74
2022/09/25 10:50:26;;;;;;;7.70;3.00;;;;;;;27.78;25.76;99516.32;105305;1271;59746;-77
2022/09/25 10:53:28;;;;;;;8.30;3.20;;;;;;;28.26;25.02;99508.95;105460;1271;60653;-72
2022/09/25 10:56:31;;;;;;;6.20;2.30;;;;;;;28.51;24.13;99505.56;105240;1274;74793;-74
2022/09/25 10:59:21;;;;;;;6.30;2.40;;;;;;;28.75;23.54;99499.89;105338;1271;68160;-78
2022/09/25 11:02:30;;;;;;;7.80;3.10;;;;;;;28.73;23.64;99502.23;105170;1271;70614;-79
2022/09/25 11:05:32;;;;;;;6.30;2.60;;;;;;;28.89;23.51;99498.27;105285;1271;59748;-74
2022/09/25 11:08:25;;;;;;;7.60;2.70;;;;;;;28.97;23.52;99493.59;105476;1271;60983;-73
2022/09/25 11:11:25;;;;;;;10.70;6.90;;;;;;;29.03;23.43;99484.70;105094;1271;72126;-71
2022/09/25 11:14:31;;;;;;;6.30;2.50;;;;;;;29.10;23.80;99485.70;105244;1271;69582;-71
2022/09/25 11:17:41;;;;;;;5.90;2.40;;;;;;;28.64;21.25;99486.95;105393;1271;71502;-71
2022/09/25 11:20:31;;;;;;;6.20;2.40;;;;;;;27.98;22.36;99477.65;105087;1271;59756;-72
2022/09/25 11:23:42;;;;;;;7.00;3.20;;;;;;;27.46;23.48;99482.80;105191;1271;62072;-74
2022/09/25 11:26:42;;;;;;;8.00;2.90;;;;;;;27.66;23.72;99480.42;105427;1271;74756;-71
2022/09/25 11:29:39;;;;;;;7.60;2.70;;;;;;;27.84;23.36;99476.64;105294;1271;69626;-72
2022/09/25 11:32:59;;;;;;;7.10;2.60;;;;;;;27.82;23.57;99476.82;104989;1271;72975;-71
2022/09/25 11:35:50;;;;;;;6.80;2.70;;;;;;;26.99;23.73;99476.93;104421;1279;59892;-72
2022/09/25 11:42:23;;;;;;;6.70;2.80;;;;;;;26.05;25.10;99479.52;104471;1280;70984;-71
2022/09/25 11:45:25;;;;;;;6.70;2.70;;;;;;;25.71;25.31;99473.31;104604;1281;68071;-72
2022/09/25 11:48:49;;;;;;;6.30;2.50;;;;;;;25.45;25.50;99473.69;104653;1281;72739;-71
2022/09/25 11:51:51;;;;;;;6.50;2.40;;;;;;;25.25;25.80;99469.88;104752;1281;59790;-71
2022/09/25 11:55:07;;;;;;;6.80;2.80;;;;;;;24.83;26.25;99465.84;104400;1281;61005;-76
2022/09/25 11:58:19;;;;;;;6.20;2.50;;;;;;;24.62;26.67;99462.27;104478;1281;73667;-73
2022/09/25 12:01:41;;;;;;;7.30;2.90;;;;;;;24.04;27.79;99463.71;104714;1281;66531;-71
2022/09/25 12:05:02;;;;;;;7.70;3.30;;;;;;;23.22;28.78;99462.90;104618;1279;74490;-71
2022/09/25 12:08:00;;;;;;;7.60;3.60;;;;;;;22.11;30.79;99456.97;104375;1281;59792;-75
2022/09/25 12:11:01;;;;;;;8.00;3.70;;;;;;;21.62;32.12;99462.24;104547;1281;59659;-72
2022/09/25 12:14:36;;;;;;;8.20;3.90;;;;;;;21.55;33.45;99450.87;105201;1271;74740;-72
2022/09/25 12:17:49;;;;;;;7.90;3.50;;;;;;;21.48;33.15;99443.17;105517;1271;68336;-71
2022/09/25 12:20:49;;;;;;;7.70;3.10;;;;;;;21.22;34.54;99444.89;105135;1271;74363;-72
2022/09/25 12:24:14;;;;;;;8.00;3.90;;;;;;;20.86;35.16;99442.02;104979;1271;59694;-72
2022/09/25 12:27:40;;;;;;;8.00;4.10;;;;;;;20.37;35.33;99444.40;105591;1271;61035;-72
2022/09/25 12:31:02;;;;;;;9.90;4.60;;;;;;;19.86;36.07;99440.16;105027;1271;73741;-73
2022/09/25 12:34:26;;;;;;;8.30;4.00;;;;;;;19.50;37.66;99445.75;105488;1271;67102;-75
2022/09/25 12:37:33;;;;;;;8.00;4.30;;;;;;;19.21;38.92;99443.08;105159;1271;74387;-76
2022/09/25 12:40:42;;;;;;;8.20;4.70;;;;;;;18.89;39.66;99438.69;105162;1271;59768;-76
2022/09/25 12:43:40;;;;;;;8.60;4.60;;;;;;;18.69;40.64;99436.07;105233;1271;60469;-75
2022/09/25 12:46:57;;;;;;;10.40;6.00;;;;;;;18.52;41.85;99444.29;105257;1271;74784;-75
2022/09/25 12:50:02;;;;;;;12.50;5.70;;;;;;;18.40;42.22;99442.46;105529;1271;69450;-73
2022/09/25 12:53:13;;;;;;;14.60;8.30;;;;;;;18.35;42.05;99440.36;105178;1271;74206;-74
2022/09/25 12:56:23;;;;;;;10.30;5.10;;;;;;;18.20;40.94;99438.23;105033;1271;59751;-76
2022/09/25 13:00:08;;;;;;;10.60;5.10;;;;;;;18.03;41.51;99439.64;105213;1271;60490;-75
2022/09/25 13:03:14;;;;;;;9.20;4.90;;;;;;;17.89;41.86;99436.04;105166;1271;73203;-75
2022/09/25 13:06:33;;;;;;;8.60;4.20;;;;;;;17.78;42.21;99435.05;105424;1271;69095;-74
2022/09/25 13:09:34;;;;;;;10.20;4.30;;;;;;;17.66;43.13;99435.92;105337;1271;74672;-74
2022/09/25 13:12:34;;;;;;;8.80;4.40;;;;;;;17.55;43.00;99437.02;105259;1271;348360;-75
2022/09/25 13:15:31;;;;;;;8.80;4.30;;;;;;;17.41;42.68;99441.54;105137;1271;60908;-76
2022/09/25 13:18:22;;;;;;;9.50;5.00;;;;;;;17.32;44.07;99438.20;105149;1271;74752;-75
2022/09/25 13:21:30;;;;;;;11.40;5.70;;;;;;;17.28;45.50;99438.42;105393;1271;67914;-76
2022/09/25 13:24:18;;;;;;;12.10;7.10;;;;;;;17.20;47.54;99436.96;105496;1271;72917;-74
2022/09/25 13:27:14;;;;;;;13.90;7.70;;;;;;;17.13;49.14;99433.40;105604;1271;59650;-75
2022/09/25 13:30:03;;;;;;;14.00;8.00;;;;;;;17.05;50.23;99434.78;105217;1271;60442;-75
2022/09/25 13:32:56;;;;;;;14.60;7.90;;;;;;;16.97;51.15;99436.48;105527;1271;72020;-73
2022/09/25 13:35:45;;;;;;;13.60;7.30;;;;;;;16.87;51.10;99433.77;105219;1271;68004;-75
2022/09/25 13:42:01;;;;;;;14.40;8.00;;;;;;;16.68;52.67;99424.00;106006;1271;59646;-76
2022/09/25 13:45:07;;;;;;;11.80;7.00;;;;;;;16.63;53.45;99422.31;105550;1271;60325;-76
2022/09/25 13:48:11;;;;;;;14.60;8.80;;;;;;;16.57;52.52;99413.59;105175;1271;73777;-77
2022/09/25 13:51:20;;;;;;;46.90;30.50;;;;;;;16.51;53.86;99411.95;104977;1271;67776;-74
2022/09/25 13:54:25;;;;;;;18.20;10.10;;;;;;;16.44;55.20;99408.68;105505;1271;71535;-76
2022/09/25 13:57:16;;;;;;;13.30;8.50;;;;;;;16.36;56.04;99405.66;105175;1271;59746;-75